createdAt,value
2022-11-10T00:03:28.304Z,101067.69
2022-11-10T00:08:31.058Z,101080.03
2022-11-10T00:13:35.215Z,101087.94
2022-11-10T00:18:38.511Z,101099.47
2022-11-10T00:23:41.211Z,101104.78
2022-11-10T00:28:43.887Z,101104.72
2022-11-10T00:33:47.338Z,101110.00
2022-11-10T00:38:50.820Z,101116.16
2022-11-10T00:43:52.891Z,101108.22
2022-11-10T00:48:56.435Z,101113.53
2022-11-10T00:53:58.499Z,101125.97
2022-11-10T00:59:00.535Z,101122.50
2022-11-10T01:04:04.555Z,101133.13
2022-11-10T01:09:06.523Z,101142.03
2022-11-10T01:14:08.254Z,101132.28
2022-11-10T01:19:11.266Z,101134.94
2022-11-10T01:24:13.291Z,101144.63
2022-11-10T01:29:15.047Z,101160.56
2022-11-10T01:34:18.098Z,101164.13
2022-11-10T01:39:20.347Z,101168.59
2022-11-10T01:44:24.730Z,101175.69
2022-11-10T01:49:29.235Z,101176.56
2022-11-10T01:54:34.628Z,101180.94
2022-11-10T01:59:40.443Z,101175.56
2022-11-10T02:04:44.219Z,101184.28
2022-11-10T02:09:47.310Z,101198.28
2022-11-10T02:14:49.419Z,101202.59
2022-11-10T02:19:52.552Z,101204.25
2022-11-10T02:24:56.674Z,101214.00
2022-11-10T02:29:58.945Z,101225.44
2022-11-10T02:35:00.630Z,101220.88
2022-11-10T02:40:04.849Z,101228.03
2022-11-10T02:45:07.484Z,101234.25
2022-11-10T02:50:10.316Z,101232.47
2022-11-10T02:55:13.707Z,101243.97
2022-11-10T03:00:15.711Z,101247.47
2022-11-10T03:05:17.987Z,101252.81
2022-11-10T03:10:21.862Z,101261.72
2022-11-10T03:15:24.500Z,101272.44
2022-11-10T03:20:26.616Z,101280.47
2022-11-10T03:25:30.404Z,101283.22
2022-11-10T03:30:32.461Z,101293.22
2022-11-10T03:35:34.252Z,101305.69
2022-11-10T03:40:50.823Z,101310.94
2022-11-10T03:46:00.737Z,101308.41
2022-11-10T03:51:04.107Z,101328.75
2022-11-10T03:56:08.241Z,101328.78
2022-11-10T04:01:10.792Z,101327.00
2022-11-10T04:06:12.658Z,101334.06
2022-11-10T04:11:16.354Z,101342.00
2022-11-10T04:16:18.512Z,101347.31
2022-11-10T04:21:20.168Z,101347.34
2022-11-10T04:26:23.610Z,101360.69
2022-11-10T04:31:27.208Z,101372.19
2022-11-10T04:36:31.037Z,101379.34
2022-11-10T04:41:35.157Z,101383.75
2022-11-10T04:46:38.850Z,101388.16
2022-11-10T04:51:40.699Z,101384.66
2022-11-10T04:56:44.428Z,101382.88
2022-11-10T05:01:46.535Z,101386.38
2022-11-10T05:06:48.274Z,101392.53
2022-11-10T05:11:51.828Z,101400.50
2022-11-10T05:16:54.199Z,101405.78
2022-11-10T05:21:56.569Z,101407.50
2022-11-10T05:27:00.394Z,101419.84
2022-11-10T05:32:02.671Z,101444.53
2022-11-10T05:37:04.837Z,101454.25
2022-11-10T05:42:08.473Z,101463.91
2022-11-10T05:47:10.156Z,101460.28
2022-11-10T05:52:12.214Z,101488.50
2022-11-10T05:57:15.930Z,101502.47
2022-11-10T06:02:18.131Z,101518.25
2022-11-10T06:07:20.359Z,101523.41
2022-11-10T06:12:23.711Z,101522.41
2022-11-10T06:17:26.150Z,101530.25
2022-11-10T06:22:28.217Z,101548.63
2022-11-10T06:27:32.380Z,101556.44
2022-11-10T06:32:35.130Z,101567.88
2022-11-10T06:37:37.287Z,101580.19
2022-11-10T06:42:41.033Z,101580.09
2022-11-10T06:47:43.258Z,101614.53
2022-11-10T06:52:53.853Z,101631.38
2022-11-10T06:57:57.812Z,101634.19
2022-11-10T07:03:04.808Z,101639.69
2022-11-10T07:08:08.885Z,101650.75
2022-11-10T07:13:12.500Z,101669.75
2022-11-10T07:18:14.952Z,101675.13
2022-11-10T07:23:17.034Z,101695.63
2022-11-10T07:28:23.454Z,101684.16
2022-11-10T07:33:29.461Z,101693.94
2022-11-10T07:38:31.165Z,101701.94
2022-11-10T07:43:34.657Z,101713.50
2022-11-10T07:48:36.351Z,101731.25
2022-11-10T07:53:38.033Z,101738.38
2022-11-10T07:58:41.234Z,101732.31
2022-11-10T08:03:43.783Z,101740.41
2022-11-10T08:08:46.172Z,101744.03
2022-11-10T08:13:49.986Z,101754.66
2022-11-10T08:18:51.992Z,101772.41
2022-11-10T08:23:54.134Z,101767.09
2022-11-10T08:28:57.744Z,101776.88
2022-11-10T08:34:00.354Z,101767.09
2022-11-10T08:39:02.817Z,101784.78
2022-11-10T08:44:10.701Z,101789.19
2022-11-10T08:49:12.802Z,101793.59
2022-11-10T08:54:14.844Z,101810.44
2022-11-10T08:59:18.447Z,101813.09
2022-11-10T09:04:20.119Z,101827.31
2022-11-10T09:09:21.912Z,101841.50
2022-11-10T09:14:25.341Z,101847.56
2022-11-10T09:19:27.516Z,101855.53
2022-11-10T09:24:31.560Z,101853.72
2022-11-10T09:29:35.492Z,101856.28
2022-11-10T09:34:37.596Z,101862.25
2022-11-10T09:39:39.812Z,101869.34
2022-11-10T09:44:49.952Z,101865.81
2022-11-10T09:49:57.170Z,101874.59
2022-11-10T09:55:05.425Z,101875.22
2022-11-10T10:00:13.490Z,101878.38
2022-11-10T10:05:36.455Z,101872.97
2022-11-10T10:10:43.276Z,101881.34
2022-11-10T10:16:08.965Z,101869.09
2022-11-10T10:21:26.737Z,101878.88
2022-11-10T10:26:32.258Z,101890.63
2022-11-10T10:31:39.139Z,101887.94
2022-11-10T10:36:41.688Z,101891.94
2022-11-10T10:41:46.227Z,101902.50
2022-11-10T10:46:51.551Z,101896.91
2022-11-10T10:52:03.002Z,101896.19
2022-11-10T10:57:19.407Z,101898.44
2022-11-10T11:02:26.720Z,101893.94
2022-11-10T11:07:28.829Z,101904.50
2022-11-10T11:12:31.222Z,101905.56
2022-11-10T11:17:34.342Z,101891.03
2022-11-10T11:22:47.544Z,101907.81
2022-11-10T11:27:59.158Z,101910.44
2022-11-10T11:33:17.914Z,101887.81
2022-11-10T11:38:32.061Z,101900.13
2022-11-10T11:43:59.287Z,101892.38
2022-11-10T11:49:23.526Z,101897.78
2022-11-10T11:54:37.793Z,101903.19
2022-11-10T11:59:56.778Z,101918.16
2022-11-10T12:05:15.737Z,101913.13
2022-11-10T12:10:31.187Z,101909.81
2022-11-10T12:15:42.257Z,101917.09
2022-11-10T12:20:57.771Z,101919.13
2022-11-10T12:26:12.076Z,101917.19
2022-11-10T12:31:20.542Z,101921.09
2022-11-10T12:36:27.501Z,101935.44
2022-11-10T12:41:36.620Z,101949.41
2022-11-10T12:46:40.412Z,101952.25
2022-11-10T12:51:50.503Z,101964.44
2022-11-10T12:56:55.092Z,101960.97
2022-11-10T13:02:01.740Z,101971.75
2022-11-10T13:07:12.898Z,101973.47
2022-11-10T13:12:18.876Z,101973.84
2022-11-10T13:17:55.362Z,101977.38
2022-11-10T13:22:58.824Z,101981.44
2022-11-10T13:28:00.984Z,101983.03
2022-11-10T13:33:32.404Z,101993.47
2022-11-10T13:38:38.236Z,102009.09
2022-11-10T13:43:48.893Z,102012.00
2022-11-10T13:49:23.460Z,102010.25
2022-11-10T13:55:02.804Z,101995.28
2022-11-10T14:00:24.644Z,102002.63
2022-11-10T14:06:02.699Z,102002.72
2022-11-10T14:11:13.363Z,102016.94
2022-11-10T14:16:21.225Z,102022.28
2022-11-10T14:21:29.127Z,102035.63
2022-11-10T14:26:37.895Z,102046.34
2022-11-10T14:31:43.998Z,102038.34
2022-11-10T14:36:56.256Z,102047.28
2022-11-10T14:42:03.760Z,102054.41
2022-11-10T14:47:22.724Z,102056.22
2022-11-10T14:52:24.850Z,102075.81
2022-11-10T14:57:28.012Z,102079.41
2022-11-10T15:02:30.133Z,102082.09
2022-11-10T15:07:32.481Z,102089.22
2022-11-10T15:12:40.865Z,102104.34
2022-11-10T15:17:46.089Z,102108.78
2022-11-10T15:22:49.866Z,102108.75
2022-11-10T15:28:00.690Z,102098.06
2022-11-10T15:33:09.764Z,102117.53
2022-11-10T15:38:25.936Z,102120.06
2022-11-10T15:43:30.048Z,102121.75
2022-11-10T15:48:38.082Z,102134.03
2022-11-10T15:53:42.620Z,102125.13
2022-11-10T15:58:49.113Z,102118.81
2022-11-10T16:03:50.815Z,102123.19
2022-11-10T16:08:52.635Z,102118.72
2022-11-10T16:13:56.472Z,102121.31
2022-11-10T16:18:58.215Z,102121.28
2022-11-10T16:23:59.937Z,102122.97
2022-11-10T16:29:03.749Z,102124.75
2022-11-10T16:34:05.911Z,102138.84
2022-11-10T16:39:12.219Z,102145.75
2022-11-10T16:44:16.384Z,102163.34
2022-11-10T16:49:26.428Z,102170.25
2022-11-10T16:54:28.592Z,102182.41
2022-11-10T16:59:31.785Z,102190.97
2022-11-10T17:04:34.804Z,102187.34
2022-11-10T17:09:36.496Z,102177.44
2022-11-10T17:14:39.954Z,102181.56
2022-11-10T17:19:42.271Z,102193.84
2022-11-10T17:24:46.141Z,102195.03
2022-11-10T17:29:49.311Z,102213.16
2022-11-10T17:34:51.068Z,102235.53
2022-11-10T17:39:52.803Z,102248.06
2022-11-10T17:44:56.183Z,102245.47
2022-11-10T17:49:58.389Z,102242.06
2022-11-10T17:55:00.066Z,102239.44
2022-11-10T18:00:04.323Z,102249.25
2022-11-10T18:05:06.846Z,102255.53
2022-11-10T18:10:14.122Z,102246.81
2022-11-10T18:15:18.169Z,102248.69
2022-11-10T18:20:20.248Z,102247.81
2022-11-10T18:25:22.514Z,102226.66
2022-11-10T18:30:25.868Z,102231.16
2022-11-10T18:35:28.157Z,102252.53
2022-11-10T18:40:29.911Z,102241.22
2022-11-10T18:45:36.093Z,102252.09
2022-11-10T18:50:38.508Z,102258.38
2022-11-10T18:55:45.241Z,102267.38
2022-11-10T19:00:48.971Z,102281.44
2022-11-10T19:05:54.371Z,102276.22
2022-11-10T19:11:00.142Z,102278.00
2022-11-10T19:16:05.537Z,102273.47
2022-11-10T19:21:08.976Z,102281.47
2022-11-10T19:26:12.950Z,102302.72
2022-11-10T19:31:19.501Z,102289.50
2022-11-10T19:36:24.074Z,102293.81
2022-11-10T19:41:27.748Z,102307.09
2022-11-10T19:46:31.779Z,102288.53
2022-11-10T19:51:38.707Z,102285.78
2022-11-10T19:57:11.570Z,102294.63
2022-11-10T20:02:33.155Z,102299.06
2022-11-10T20:07:56.537Z,102299.91
2022-11-10T20:13:22.682Z,102290.19
2022-11-10T20:18:40.533Z,102303.41
2022-11-10T20:24:40.274Z,102318.47
2022-11-10T20:29:49.095Z,102324.56
2022-11-10T20:35:18.673Z,102338.63
2022-11-10T20:40:54.155Z,102336.56
2022-11-10T20:46:07.030Z,102349.56
2022-11-10T20:51:33.446Z,102357.31
2022-11-10T20:56:45.808Z,102361.66
2022-11-10T21:02:03.929Z,102360.53
2022-11-10T21:07:18.314Z,102368.25
2022-11-10T21:12:37.407Z,102374.28
2022-11-10T21:17:57.646Z,102380.28
2022-11-10T21:28:46.511Z,102373.78
2022-11-10T21:34:17.222Z,102372.84
2022-11-10T21:39:40.828Z,102373.63
2022-11-10T21:44:54.076Z,102363.69
2022-11-10T21:50:23.530Z,102358.38
2022-11-10T21:56:11.577Z,102360.84
2022-11-10T22:01:33.914Z,102358.97
2022-11-10T22:07:05.995Z,102364.88
2022-11-10T22:12:19.877Z,102370.03
2022-11-10T22:17:27.017Z,102367.22
2022-11-10T22:22:37.749Z,102379.41
2022-11-10T22:28:07.680Z,102373.06
2022-11-10T22:33:23.677Z,102391.66
2022-11-10T22:38:47.759Z,102388.13
2022-11-10T22:44:24.847Z,102401.28
2022-11-10T22:49:44.735Z,102409.06
2022-11-10T22:55:14.962Z,102407.03
2022-11-10T23:00:28.691Z,102408.53
2022-11-10T23:05:37.004Z,102416.34
2022-11-10T23:10:49.961Z,102409.16
2022-11-10T23:16:22.170Z,102410.63
2022-11-10T23:21:40.750Z,102424.53
2022-11-10T23:26:46.081Z,102434.84
2022-11-10T23:31:58.749Z,102426.69
2022-11-10T23:37:12.321Z,102416.88
2022-11-10T23:42:23.199Z,102422.78
2022-11-10T23:47:34.020Z,102416.56
2022-11-10T23:52:42.309Z,102430.66
2022-11-10T23:57:46.036Z,102424.59
